Aviation Digital Data Service (ADDS)

Output produced by METARs form (1301 UTC 19 January 2017)
found at http://www.aviationweather.gov/adds/metars/
 
KUNV 191253Z 27007KT 10SM OVC014 03/01 A3006
KUNV 191153Z 27009KT 10SM OVC014 03/01 A3005
KUNV 191053Z 26007KT 10SM OVC014 03/01 A3004
KUNV 191035Z AUTO 29007KT 10SM OVC014 03/01 A3004 RMK AO2 T00300008
KUNV 191015Z AUTO 27007KT 10SM OVC014 03/01 A3004 RMK AO2 T00300008
KUNV 190955Z AUTO 27008KT 10SM OVC014 03/01 A3004 RMK AO2 T00300008
KUNV 190935Z AUTO 27007KT 10SM OVC014 03/01 A3004 RMK AO2 LTG DSNT SW T00310007
KUNV 190915Z AUTO 27008KT 10SM OVC014 03/01 A3004 RMK AO2 T00310008
KUNV 190855Z AUTO 27010KT 10SM OVC016 03/01 A3005 RMK AO2 T00310006
KUNV 190835Z AUTO 27009KT 10SM BKN018 OVC023 03/01 A3005 RMK AO2 T00330005
KUNV 190820Z AUTO 27010G15KT 10SM OVC022 03/01 A3005 RMK AO2 T00320005
KUNV 190755Z AUTO 27006KT 10SM SCT016 OVC025 03/01 A3005 RMK AO2 T00300010
KUNV 190735Z AUTO 24005KT 10SM SCT016 BKN022 OVC029 03/01 A3005 RMK AO2 T00270013
KUNV 190715Z AUTO 26006KT 10SM SCT018 OVC027 03/01 A3006 RMK AO2 T00310011
KUNV 190655Z AUTO 27009KT 10SM SCT020 OVC027 04/01 A3005 RMK AO2 T00350006
KUNV 190635Z AUTO 26007KT 10SM BKN018 OVC025 03/01 A3005 RMK AO2 T00340007
KUNV 190615Z AUTO 24009KT 10SM BKN018 OVC025 03/01 A3003 RMK AO2 T00320012
KUNV 190555Z AUTO 25007KT 10SM BKN016 OVC023 03/01 A3005 RMK AO2 T00310013 10040 20030
KUNV 190535Z AUTO 25008KT 10SM OVC016 03/02 A3005 RMK AO2 T00300015
KUNV 190515Z AUTO 24006KT 10SM OVC016 03/02 A3004 RMK AO2 T00300015
KUNV 190455Z AUTO 25007KT 10SM OVC016 03/02 A3006 RMK AO2 T00300016
KUNV 190435Z AUTO 25007KT 10SM OVC016 03/02 A3006 RMK AO2 T00310015
KUNV 190415Z AUTO 25006KT 10SM OVC016 03/02 A3005 RMK AO2 T00310015
KUNV 190355Z AUTO 26007KT 10SM OVC016 03/01 A3005 RMK AO2 T00320013 400660010
KUNV 190335Z AUTO 26006KT 10SM OVC016 03/01 A3004 RMK AO2 T00330012
KUNV 190315Z AUTO 26008KT 10SM OVC016 03/01 A3005 RMK AO2 T00330011
KUNV 190153Z 26007KT 10SM OVC016 03/01 A3005
KUNV 190053Z 28005KT 10SM BKN018 OVC036 03/01 A3006
KUNV 182353Z 30008KT 10SM OVC016 04/01 A3006
KUNV 182253Z 28009KT 10SM OVC018 04/01 A3005
KUNV 182153Z 29008KT 10SM BKN015 OVC023 04/01 A3003
KUNV 182053Z 29009G16KT 10SM OVC014 05/02 A3001
KUNV 182028Z 30018G23KT 10SM OVC017 05/02 A3000
KUNV 181953Z 30008G17KT 10SM BKN017 OVC022 05/02 A2999
KUNV 181853Z 29008G15KT 10SM OVC019 06/03 A2997
KUNV 181753Z 30010G18KT 10SM OVC021 06/03 A2996
KUNV 181653Z 30010G15KT 10SM OVC023 06/03 A2997
KUNV 181553Z 26010G16KT 10SM OVC021 06/03 A2997
KUNV 181453Z 27005KT 10SM OVC023 06/03 A2997
KUNV 181353Z 24004KT 10SM -DZ BKN018 BKN043 OVC050 06/04 A2994
KUNV 181253Z 29011G19KT 10SM -DZ BKN020 BKN041 OVC060 06/05 A2992
KUNV 181153Z 27003KT 4SM BR OVC016 04/04 A2990
KUNV 181053Z 00000KT 4SM BR OVC016 03/03 A2988
KUNV 181035Z AUTO 00000KT 3SM BR OVC016 03/03 A2988 RMK AO2 LTG DSNT SE T00250025
KUNV 181015Z AUTO 00000KT 2 1/2SM BR OVC016 02/02 A2988 RMK AO2 T00220022
KUNV 180955Z AUTO 00000KT 2SM BR OVC016 02/02 A2988 RMK AO2 T00200020
KUNV 180935Z AUTO 00000KT 2 1/2SM BR OVC014 02/02 A2988 RMK AO2 T00200020
KUNV 180915Z AUTO 00000KT 2SM BR SCT003 OVC014 02/02 A2987 RMK AO2 T00210021
KUNV 180855Z AUTO 23004KT 1 1/4SM BR BKN001 OVC014 02/02 A2987 RMK AO2 T00170017
KUNV 180835Z AUTO 00000KT 1/2SM FG OVC001 02/02 A2987 RMK AO2 T00150015
KUNV 180815Z AUTO 00000KT 1/4SM FG OVC001 01/01 A2987 RMK AO2 T00110011
KUNV 180755Z AUTO 00000KT 1/2SM FG OVC001 01/01 A2988 RMK AO2 T00110011
KUNV 180735Z AUTO 00000KT 1/2SM FG OVC001 01/01 A2988 RMK AO2 T00130013
KUNV 180715Z AUTO 00000KT 1/4SM -SN OVC001 01/01 A2988 RMK AO2 T00120012
KUNV 180655Z AUTO 00000KT 1/4SM -SN OVC001 01/01 A2988 RMK AO2 T00110011
KUNV 180635Z AUTO 00000KT 1/2SM -RA OVC001 01/01 A2987 RMK AO2 P0001 T00110011
KUNV 180615Z AUTO 00000KT 1/2SM -RA OVC001 01/01 A2987 RMK AO2 T00120011
KUNV 180555Z AUTO 00000KT 1/4SM -DZ OVC001 01/01 A2986 RMK AO2 T00100010 10021 20010
KUNV 180535Z AUTO 00000KT 1/4SM FG OVC001 01/01 A2986 RMK AO2 T00130013
KUNV 180515Z AUTO 00000KT 1/4SM FG OVC001 01/01 A2987 RMK AO2 T00120011
KUNV 180455Z AUTO 00000KT 1/4SM FG OVC001 01/01 A2987 RMK AO2 T00110010
KUNV 180435Z AUTO 00000KT 1/4SM FG OVC001 01/01 A2988 RMK AO2 T00110010
KUNV 180415Z AUTO 00000KT 1/2SM FG OVC001 02/02 A2988 RMK AO2 T00150015
KUNV 180355Z AUTO 00000KT 1SM BR OVC003 02/02 A2988 RMK AO2 T00200019 400311003
KUNV 180335Z AUTO 00000KT 3/4SM BR OVC003 02/02 A2989 RMK AO2 T00150015
KUNV 180315Z AUTO 00000KT 1 1/4SM BR OVC003 02/01 A2990 RMK AO2 T00150014
KUNV 180153Z 00000KT 1/2SM -RA FG OVC003 01/01 A2989
KUNV 180142Z 36003KT 1/4SM -DZ FG OVC001 01/01 A2989